Weather at Makale Airport

Public forecast

Using degrees Celsius for public forecast. Weather courtesy of forecast.io.

Closest aviation weather report (METAR) to Makale Airport

Closest report is Hasanuddin International Airport, 118.6 nm (219.7 km) S.

2024/04/12 17:00 (retrieved 42 minutes ago)

WAAA 121700Z 12002KT 8000 SCT018 25/25 Q1010 NOSIG

Closest aviation forecast (TAF) to Makale Airport

Closest forecast is Toraja Airport, 5.9 nm (10.9 km) SE.

2024/04/12 12:50 (retrieved 5 hours ago)

TAF WAFB 121100Z 1212/1224 00000KT 8000 RA BKN016 BKN100 BECMG 1218/1220 2000 BR